sensor_id;sensor_type;location;lat;lon;timestamp;P1;durP1;ratioP1;P2;durP2;ratioP2
12267;SDS011;6196;48.398;11.736;2022-12-26T00:00:47;3.57;;;3.27;;
12267;SDS011;6196;48.398;11.736;2022-12-26T00:03:14;4.60;;;3.47;;
12267;SDS011;6196;48.398;11.736;2022-12-26T00:05:41;3.60;;;3.30;;
12267;SDS011;6196;48.398;11.736;2022-12-26T00:08:07;4.00;;;3.40;;
12267;SDS011;6196;48.398;11.736;2022-12-26T00:10:34;3.57;;;3.23;;
12267;SDS011;6196;48.398;11.736;2022-12-26T00:13:01;4.83;;;3.07;;
12267;SDS011;6196;48.398;11.736;2022-12-26T00:15:48;4.23;;;2.90;;
12267;SDS011;6196;48.398;11.736;2022-12-26T00:18:15;3.53;;;3.00;;
12267;SDS011;6196;48.398;11.736;2022-12-26T00:20:41;3.67;;;3.13;;
12267;SDS011;6196;48.398;11.736;2022-12-26T00:23:08;3.33;;;3.03;;
12267;SDS011;6196;48.398;11.736;2022-12-26T00:25:35;3.83;;;3.30;;
12267;SDS011;6196;48.398;11.736;2022-12-26T00:28:02;4.10;;;3.30;;
12267;SDS011;6196;48.398;11.736;2022-12-26T00:30:29;3.67;;;2.93;;
12267;SDS011;6196;48.398;11.736;2022-12-26T00:32:56;3.80;;;3.40;;
12267;SDS011;6196;48.398;11.736;2022-12-26T00:35:22;3.73;;;3.30;;
12267;SDS011;6196;48.398;11.736;2022-12-26T00:37:49;4.20;;;3.00;;
12267;SDS011;6196;48.398;11.736;2022-12-26T00:40:16;3.80;;;3.40;;
12267;SDS011;6196;48.398;11.736;2022-12-26T00:42:43;3.97;;;2.87;;
12267;SDS011;6196;48.398;11.736;2022-12-26T00:45:10;3.07;;;2.77;;
12267;SDS011;6196;48.398;11.736;2022-12-26T00:47:37;3.00;;;2.70;;
12267;SDS011;6196;48.398;11.736;2022-12-26T00:50:03;3.83;;;2.83;;
12267;SDS011;6196;48.398;11.736;2022-12-26T00:52:40;4.57;;;3.30;;
12267;SDS011;6196;48.398;11.736;2022-12-26T00:55:07;3.20;;;2.90;;
12267;SDS011;6196;48.398;11.736;2022-12-26T00:57:35;5.37;;;3.20;;
12267;SDS011;6196;48.398;11.736;2022-12-26T01:00:02;4.10;;;2.93;;
12267;SDS011;6196;48.398;11.736;2022-12-26T01:02:30;3.17;;;2.60;;
12267;SDS011;6196;48.398;11.736;2022-12-26T01:05:04;4.07;;;3.23;;
12267;SDS011;6196;48.398;11.736;2022-12-26T01:07:33;3.37;;;2.80;;
12267;SDS011;6196;48.398;11.736;2022-12-26T01:10:21;3.70;;;2.77;;
12267;SDS011;6196;48.398;11.736;2022-12-26T01:12:48;3.10;;;2.80;;
12267;SDS011;6196;48.398;11.736;2022-12-26T01:15:15;3.90;;;3.10;;
12267;SDS011;6196;48.398;11.736;2022-12-26T01:17:42;3.60;;;2.90;;
12267;SDS011;6196;48.398;11.736;2022-12-26T01:20:09;4.37;;;2.93;;
12267;SDS011;6196;48.398;11.736;2022-12-26T01:22:36;3.67;;;3.23;;
12267;SDS011;6196;48.398;11.736;2022-12-26T01:25:04;3.10;;;2.80;;
12267;SDS011;6196;48.398;11.736;2022-12-26T01:27:31;3.17;;;2.87;;
12267;SDS011;6196;48.398;11.736;2022-12-26T01:29:58;5.27;;;2.77;;
12267;SDS011;6196;48.398;11.736;2022-12-26T01:32:25;3.33;;;2.77;;
12267;SDS011;6196;48.398;11.736;2022-12-26T01:34:52;3.30;;;2.77;;
12267;SDS011;6196;48.398;11.736;2022-12-26T01:37:20;3.77;;;3.13;;
12267;SDS011;6196;48.398;11.736;2022-12-26T01:39:48;3.57;;;2.93;;
12267;SDS011;6196;48.398;11.736;2022-12-26T01:42:17;3.00;;;2.70;;
12267;SDS011;6196;48.398;11.736;2022-12-26T01:45:05;3.33;;;2.87;;
12267;SDS011;6196;48.398;11.736;2022-12-26T01:47:49;3.60;;;2.90;;
12267;SDS011;6196;48.398;11.736;2022-12-26T01:50:28;3.93;;;2.90;;
12267;SDS011;6196;48.398;11.736;2022-12-26T01:53:29;3.67;;;2.43;;
12267;SDS011;6196;48.398;11.736;2022-12-26T01:56:02;3.60;;;2.60;;
12267;SDS011;6196;48.398;11.736;2022-12-26T01:58:33;3.47;;;3.13;;
12267;SDS011;6196;48.398;11.736;2022-12-26T02:01:12;3.70;;;2.97;;
12267;SDS011;6196;48.398;11.736;2022-12-26T02:03:40;3.73;;;2.50;;
12267;SDS011;6196;48.398;11.736;2022-12-26T02:06:29;3.47;;;3.17;;
12267;SDS011;6196;48.398;11.736;2022-12-26T02:08:57;3.33;;;2.77;;
12267;SDS011;6196;48.398;11.736;2022-12-26T02:11:26;3.47;;;3.17;;
12267;SDS011;6196;48.398;11.736;2022-12-26T02:14:04;2.70;;;2.50;;
12267;SDS011;6196;48.398;11.736;2022-12-26T02:16:33;3.70;;;2.60;;
12267;SDS011;6196;48.398;11.736;2022-12-26T02:19:01;3.53;;;2.93;;
12267;SDS011;6196;48.398;11.736;2022-12-26T02:33:39;4.87;;;2.37;;
12267;SDS011;6196;48.398;11.736;2022-12-26T02:40:03;2.93;;;2.63;;
12267;SDS011;6196;48.398;11.736;2022-12-26T02:42:58;3.07;;;2.50;;
12267;SDS011;6196;48.398;11.736;2022-12-26T02:45:38;3.00;;;2.70;;
12267;SDS011;6196;48.398;11.736;2022-12-26T02:56:08;2.63;;;2.30;;
12267;SDS011;6196;48.398;11.736;2022-12-26T02:59:05;3.33;;;2.23;;
12267;SDS011;6196;48.398;11.736;2022-12-26T03:02:24;3.13;;;2.33;;
12267;SDS011;6196;48.398;11.736;2022-12-26T03:05:53;3.70;;;2.27;;
12267;SDS011;6196;48.398;11.736;2022-12-26T03:08:55;2.50;;;2.30;;
12267;SDS011;6196;48.398;11.736;2022-12-26T03:11:48;2.57;;;2.23;;
12267;SDS011;6196;48.398;11.736;2022-12-26T03:14:43;2.57;;;2.10;;
12267;SDS011;6196;48.398;11.736;2022-12-26T03:17:23;2.57;;;2.00;;
12267;SDS011;6196;48.398;11.736;2022-12-26T03:19:57;2.50;;;2.30;;
12267;SDS011;6196;48.398;11.736;2022-12-26T03:28:39;2.20;;;1.80;;
12267;SDS011;6196;48.398;11.736;2022-12-26T03:31:08;2.10;;;1.90;;
12267;SDS011;6196;48.398;11.736;2022-12-26T03:33:38;1.90;;;1.70;;
12267;SDS011;6196;48.398;11.736;2022-12-26T03:48:56;2.07;;;1.87;;
12267;SDS011;6196;48.398;11.736;2022-12-26T03:52:22;1.67;;;1.57;;
12267;SDS011;6196;48.398;11.736;2022-12-26T03:55:16;2.37;;;1.70;;
12267;SDS011;6196;48.398;11.736;2022-12-26T03:58:26;1.83;;;1.70;;
12267;SDS011;6196;48.398;11.736;2022-12-26T04:01:26;1.63;;;1.53;;
12267;SDS011;6196;48.398;11.736;2022-12-26T04:04:14;4.93;;;1.90;;
12267;SDS011;6196;48.398;11.736;2022-12-26T04:07:03;2.20;;;2.00;;
12267;SDS011;6196;48.398;11.736;2022-12-26T04:09:58;1.90;;;1.70;;
12267;SDS011;6196;48.398;11.736;2022-12-26T04:12:55;1.83;;;1.50;;
12267;SDS011;6196;48.398;11.736;2022-12-26T04:15:44;3.40;;;1.97;;
12267;SDS011;6196;48.398;11.736;2022-12-26T04:18:55;3.33;;;1.90;;
12267;SDS011;6196;48.398;11.736;2022-12-26T04:22:09;2.00;;;1.73;;
12267;SDS011;6196;48.398;11.736;2022-12-26T04:25:07;2.70;;;2.07;;
12267;SDS011;6196;48.398;11.736;2022-12-26T04:28:16;1.87;;;1.63;;
12267;SDS011;6196;48.398;11.736;2022-12-26T04:31:08;1.60;;;1.40;;
12267;SDS011;6196;48.398;11.736;2022-12-26T04:34:44;2.60;;;1.73;;
12267;SDS011;6196;48.398;11.736;2022-12-26T04:37:31;1.93;;;1.63;;
12267;SDS011;6196;48.398;11.736;2022-12-26T04:40:21;1.83;;;1.60;;
12267;SDS011;6196;48.398;11.736;2022-12-26T04:43:11;1.70;;;1.60;;
12267;SDS011;6196;48.398;11.736;2022-12-26T04:46:13;1.90;;;1.50;;
12267;SDS011;6196;48.398;11.736;2022-12-26T04:48:42;1.73;;;1.63;;
12267;SDS011;6196;48.398;11.736;2022-12-26T04:51:28;1.53;;;1.43;;
12267;SDS011;6196;48.398;11.736;2022-12-26T04:53:55;1.60;;;1.50;;
12267;SDS011;6196;48.398;11.736;2022-12-26T04:56:22;1.87;;;1.57;;
12267;SDS011;6196;48.398;11.736;2022-12-26T04:58:49;1.30;;;1.20;;
12267;SDS011;6196;48.398;11.736;2022-12-26T05:01:15;1.70;;;1.60;;
12267;SDS011;6196;48.398;11.736;2022-12-26T05:04:01;1.73;;;1.60;;
12267;SDS011;6196;48.398;11.736;2022-12-26T05:06:47;2.17;;;1.70;;
12267;SDS011;6196;48.398;11.736;2022-12-26T05:09:32;1.90;;;1.60;;
12267;SDS011;6196;48.398;11.736;2022-12-26T05:12:06;1.70;;;1.60;;
12267;SDS011;6196;48.398;11.736;2022-12-26T05:14:34;1.60;;;1.40;;
12267;SDS011;6196;48.398;11.736;2022-12-26T05:17:02;2.13;;;1.50;;
12267;SDS011;6196;48.398;11.736;2022-12-26T05:19:49;1.60;;;1.30;;
12267;SDS011;6196;48.398;11.736;2022-12-26T05:22:38;2.87;;;1.50;;
12267;SDS011;6196;48.398;11.736;2022-12-26T05:25:27;1.93;;;1.50;;
12267;SDS011;6196;48.398;11.736;2022-12-26T05:28:24;2.73;;;1.80;;
12267;SDS011;6196;48.398;11.736;2022-12-26T05:31:10;2.33;;;1.40;;
12267;SDS011;6196;48.398;11.736;2022-12-26T05:33:40;1.73;;;1.63;;
12267;SDS011;6196;48.398;11.736;2022-12-26T05:36:28;2.50;;;1.70;;
12267;SDS011;6196;48.398;11.736;2022-12-26T05:39:00;2.53;;;1.60;;
12267;SDS011;6196;48.398;11.736;2022-12-26T05:41:27;1.83;;;1.70;;
12267;SDS011;6196;48.398;11.736;2022-12-26T05:43:54;1.50;;;1.40;;
12267;SDS011;6196;48.398;11.736;2022-12-26T05:46:20;1.30;;;1.20;;
12267;SDS011;6196;48.398;11.736;2022-12-26T05:48:47;2.20;;;1.60;;
12267;SDS011;6196;48.398;11.736;2022-12-26T05:51:14;2.40;;;1.83;;
12267;SDS011;6196;48.398;11.736;2022-12-26T05:53:41;1.87;;;1.47;;
12267;SDS011;6196;48.398;11.736;2022-12-26T05:56:11;1.80;;;1.70;;
12267;SDS011;6196;48.398;11.736;2022-12-26T05:58:41;2.10;;;1.67;;
12267;SDS011;6196;48.398;11.736;2022-12-26T06:01:16;1.43;;;1.33;;
12267;SDS011;6196;48.398;11.736;2022-12-26T06:03:46;2.33;;;1.50;;
12267;SDS011;6196;48.398;11.736;2022-12-26T06:06:15;1.60;;;1.40;;
12267;SDS011;6196;48.398;11.736;2022-12-26T06:08:43;1.70;;;1.60;;
12267;SDS011;6196;48.398;11.736;2022-12-26T06:11:14;1.93;;;1.60;;
12267;SDS011;6196;48.398;11.736;2022-12-26T06:13:42;1.83;;;1.60;;
12267;SDS011;6196;48.398;11.736;2022-12-26T06:16:11;1.73;;;1.50;;
12267;SDS011;6196;48.398;11.736;2022-12-26T06:18:41;2.03;;;1.60;;
12267;SDS011;6196;48.398;11.736;2022-12-26T06:21:09;1.53;;;1.40;;
12267;SDS011;6196;48.398;11.736;2022-12-26T06:23:39;2.07;;;1.80;;
12267;SDS011;6196;48.398;11.736;2022-12-26T06:26:06;1.70;;;1.60;;
12267;SDS011;6196;48.398;11.736;2022-12-26T06:28:35;1.97;;;1.77;;
12267;SDS011;6196;48.398;11.736;2022-12-26T06:31:04;1.60;;;1.50;;
12267;SDS011;6196;48.398;11.736;2022-12-26T06:33:35;2.27;;;1.47;;
12267;SDS011;6196;48.398;11.736;2022-12-26T06:36:07;1.97;;;1.50;;
12267;SDS011;6196;48.398;11.736;2022-12-26T06:38:37;1.70;;;1.50;;
12267;SDS011;6196;48.398;11.736;2022-12-26T06:41:05;2.03;;;1.70;;
12267;SDS011;6196;48.398;11.736;2022-12-26T06:43:33;1.90;;;1.70;;
12267;SDS011;6196;48.398;11.736;2022-12-26T06:46:01;1.57;;;1.43;;
12267;SDS011;6196;48.398;11.736;2022-12-26T06:48:30;1.60;;;1.50;;
12267;SDS011;6196;48.398;11.736;2022-12-26T06:51:02;2.03;;;1.60;;
12267;SDS011;6196;48.398;11.736;2022-12-26T06:53:32;1.77;;;1.50;;
12267;SDS011;6196;48.398;11.736;2022-12-26T06:58:41;1.60;;;1.50;;
12267;SDS011;6196;48.398;11.736;2022-12-26T07:01:13;1.60;;;1.50;;
12267;SDS011;6196;48.398;11.736;2022-12-26T07:03:43;2.53;;;1.70;;
12267;SDS011;6196;48.398;11.736;2022-12-26T07:06:21;2.30;;;1.37;;
12267;SDS011;6196;48.398;11.736;2022-12-26T07:08:49;1.97;;;1.70;;
12267;SDS011;6196;48.398;11.736;2022-12-26T07:11:19;2.03;;;1.67;;
12267;SDS011;6196;48.398;11.736;2022-12-26T07:13:48;2.00;;;1.80;;
12267;SDS011;6196;48.398;11.736;2022-12-26T07:16:15;2.07;;;1.63;;
12267;SDS011;6196;48.398;11.736;2022-12-26T07:18:42;2.20;;;2.00;;
12267;SDS011;6196;48.398;11.736;2022-12-26T07:21:10;1.60;;;1.50;;
12267;SDS011;6196;48.398;11.736;2022-12-26T07:23:40;1.73;;;1.60;;
12267;SDS011;6196;48.398;11.736;2022-12-26T07:26:07;2.20;;;1.57;;
12267;SDS011;6196;48.398;11.736;2022-12-26T07:28:34;1.93;;;1.73;;
12267;SDS011;6196;48.398;11.736;2022-12-26T07:31:01;1.93;;;1.73;;
12267;SDS011;6196;48.398;11.736;2022-12-26T07:33:29;3.33;;;1.60;;
12267;SDS011;6196;48.398;11.736;2022-12-26T07:36:00;4.23;;;1.70;;
12267;SDS011;6196;48.398;11.736;2022-12-26T07:38:32;2.47;;;1.60;;
12267;SDS011;6196;48.398;11.736;2022-12-26T07:40:59;1.90;;;1.70;;
12267;SDS011;6196;48.398;11.736;2022-12-26T07:43:45;1.50;;;1.40;;
12267;SDS011;6196;48.398;11.736;2022-12-26T07:46:12;1.57;;;1.40;;
12267;SDS011;6196;48.398;11.736;2022-12-26T07:48:39;1.57;;;1.33;;
12267;SDS011;6196;48.398;11.736;2022-12-26T07:51:06;1.53;;;1.27;;
12267;SDS011;6196;48.398;11.736;2022-12-26T07:53:33;1.67;;;1.50;;
12267;SDS011;6196;48.398;11.736;2022-12-26T07:56:00;1.47;;;1.37;;
12267;SDS011;6196;48.398;11.736;2022-12-26T07:58:27;1.67;;;1.30;;
12267;SDS011;6196;48.398;11.736;2022-12-26T08:00:54;1.43;;;1.33;;
12267;SDS011;6196;48.398;11.736;2022-12-26T08:03:21;1.40;;;1.27;;
12267;SDS011;6196;48.398;11.736;2022-12-26T08:05:48;1.77;;;1.50;;
12267;SDS011;6196;48.398;11.736;2022-12-26T08:08:16;1.73;;;1.40;;
12267;SDS011;6196;48.398;11.736;2022-12-26T08:10:43;2.97;;;1.53;;
12267;SDS011;6196;48.398;11.736;2022-12-26T08:13:10;1.80;;;1.50;;
12267;SDS011;6196;48.398;11.736;2022-12-26T08:15:37;1.40;;;1.30;;
12267;SDS011;6196;48.398;11.736;2022-12-26T08:18:06;1.90;;;1.60;;
12267;SDS011;6196;48.398;11.736;2022-12-26T08:20:33;1.80;;;1.70;;
12267;SDS011;6196;48.398;11.736;2022-12-26T08:23:00;1.83;;;1.70;;
12267;SDS011;6196;48.398;11.736;2022-12-26T08:25:27;2.20;;;1.90;;
12267;SDS011;6196;48.398;11.736;2022-12-26T08:27:54;2.13;;;1.57;;
12267;SDS011;6196;48.398;11.736;2022-12-26T08:30:20;2.70;;;1.80;;
12267;SDS011;6196;48.398;11.736;2022-12-26T08:32:49;3.93;;;2.10;;
12267;SDS011;6196;48.398;11.736;2022-12-26T08:35:16;2.17;;;1.97;;
12267;SDS011;6196;48.398;11.736;2022-12-26T08:37:43;2.13;;;1.93;;
12267;SDS011;6196;48.398;11.736;2022-12-26T08:40:13;3.43;;;2.07;;
12267;SDS011;6196;48.398;11.736;2022-12-26T08:42:43;2.03;;;1.83;;
12267;SDS011;6196;48.398;11.736;2022-12-26T08:45:30;1.97;;;1.80;;
12267;SDS011;6196;48.398;11.736;2022-12-26T08:47:57;1.70;;;1.50;;
12267;SDS011;6196;48.398;11.736;2022-12-26T08:50:24;2.27;;;1.57;;
12267;SDS011;6196;48.398;11.736;2022-12-26T08:52:51;2.00;;;1.90;;
12267;SDS011;6196;48.398;11.736;2022-12-26T08:55:18;1.90;;;1.70;;
12267;SDS011;6196;48.398;11.736;2022-12-26T08:57:45;2.03;;;1.83;;
12267;SDS011;6196;48.398;11.736;2022-12-26T09:00:12;2.87;;;2.00;;
12267;SDS011;6196;48.398;11.736;2022-12-26T09:02:39;2.80;;;1.80;;
12267;SDS011;6196;48.398;11.736;2022-12-26T09:05:06;1.30;;;1.17;;
12267;SDS011;6196;48.398;11.736;2022-12-26T09:07:33;1.43;;;1.20;;
12267;SDS011;6196;48.398;11.736;2022-12-26T09:10:00;2.27;;;1.93;;
12267;SDS011;6196;48.398;11.736;2022-12-26T09:12:27;2.00;;;1.60;;
12267;SDS011;6196;48.398;11.736;2022-12-26T09:14:54;1.60;;;1.50;;
12267;SDS011;6196;48.398;11.736;2022-12-26T09:17:21;2.67;;;1.57;;
12267;SDS011;6196;48.398;11.736;2022-12-26T09:19:48;1.47;;;1.37;;
12267;SDS011;6196;48.398;11.736;2022-12-26T09:22:15;1.87;;;1.70;;
12267;SDS011;6196;48.398;11.736;2022-12-26T09:25:00;3.00;;;2.00;;
12267;SDS011;6196;48.398;11.736;2022-12-26T09:27:27;1.90;;;1.70;;
12267;SDS011;6196;48.398;11.736;2022-12-26T09:29:54;1.87;;;1.77;;
12267;SDS011;6196;48.398;11.736;2022-12-26T09:32:21;1.93;;;1.77;;
12267;SDS011;6196;48.398;11.736;2022-12-26T09:34:48;1.87;;;1.77;;
12267;SDS011;6196;48.398;11.736;2022-12-26T09:37:15;2.77;;;1.83;;
12267;SDS011;6196;48.398;11.736;2022-12-26T09:39:41;2.07;;;1.80;;
12267;SDS011;6196;48.398;11.736;2022-12-26T09:44:57;2.47;;;2.00;;
12267;SDS011;6196;48.398;11.736;2022-12-26T09:51:04;2.20;;;1.70;;
12267;SDS011;6196;48.398;11.736;2022-12-26T09:53:35;1.80;;;1.70;;
12267;SDS011;6196;48.398;11.736;2022-12-26T09:56:15;2.00;;;1.70;;
12267;SDS011;6196;48.398;11.736;2022-12-26T09:59:12;2.03;;;1.43;;
12267;SDS011;6196;48.398;11.736;2022-12-26T10:01:43;2.00;;;1.70;;
12267;SDS011;6196;48.398;11.736;2022-12-26T10:04:19;2.77;;;1.73;;
12267;SDS011;6196;48.398;11.736;2022-12-26T10:09:49;2.83;;;2.00;;
12267;SDS011;6196;48.398;11.736;2022-12-26T10:15:54;3.30;;;1.93;;
12267;SDS011;6196;48.398;11.736;2022-12-26T10:26:49;3.90;;;1.70;;
12267;SDS011;6196;48.398;11.736;2022-12-26T10:29:41;2.23;;;1.73;;
12267;SDS011;6196;48.398;11.736;2022-12-26T10:32:17;2.00;;;1.80;;
12267;SDS011;6196;48.398;11.736;2022-12-26T10:34:53;1.80;;;1.70;;
12267;SDS011;6196;48.398;11.736;2022-12-26T10:37:26;1.83;;;1.60;;
12267;SDS011;6196;48.398;11.736;2022-12-26T10:48:11;3.03;;;1.67;;
12267;SDS011;6196;48.398;11.736;2022-12-26T10:50:39;2.47;;;1.63;;
12267;SDS011;6196;48.398;11.736;2022-12-26T10:53:13;1.63;;;1.53;;
12267;SDS011;6196;48.398;11.736;2022-12-26T10:55:41;2.17;;;1.60;;
12267;SDS011;6196;48.398;11.736;2022-12-26T10:58:15;2.30;;;1.57;;
12267;SDS011;6196;48.398;11.736;2022-12-26T11:00:48;2.07;;;1.60;;
12267;SDS011;6196;48.398;11.736;2022-12-26T11:03:16;1.50;;;1.40;;
12267;SDS011;6196;48.398;11.736;2022-12-26T11:05:46;1.73;;;1.43;;
12267;SDS011;6196;48.398;11.736;2022-12-26T11:08:35;2.70;;;1.50;;
12267;SDS011;6196;48.398;11.736;2022-12-26T11:11:24;1.87;;;1.60;;
12267;SDS011;6196;48.398;11.736;2022-12-26T11:17:10;2.10;;;1.60;;
12267;SDS011;6196;48.398;11.736;2022-12-26T11:19:49;2.07;;;1.73;;
12267;SDS011;6196;48.398;11.736;2022-12-26T11:22:40;1.87;;;1.60;;
12267;SDS011;6196;48.398;11.736;2022-12-26T11:27:35;1.60;;;1.50;;
12267;SDS011;6196;48.398;11.736;2022-12-26T11:33:02;2.23;;;1.53;;
12267;SDS011;6196;48.398;11.736;2022-12-26T11:35:50;2.43;;;1.57;;
12267;SDS011;6196;48.398;11.736;2022-12-26T11:38:23;1.73;;;1.60;;
12267;SDS011;6196;48.398;11.736;2022-12-26T11:41:10;1.77;;;1.50;;
12267;SDS011;6196;48.398;11.736;2022-12-26T11:46:57;3.47;;;1.97;;
12267;SDS011;6196;48.398;11.736;2022-12-26T11:49:44;2.83;;;1.90;;
12267;SDS011;6196;48.398;11.736;2022-12-26T12:00:34;3.10;;;1.97;;
12267;SDS011;6196;48.398;11.736;2022-12-26T12:03:13;2.63;;;2.00;;
12267;SDS011;6196;48.398;11.736;2022-12-26T12:06:17;2.67;;;1.83;;
12267;SDS011;6196;48.398;11.736;2022-12-26T12:09:08;2.33;;;2.07;;
12267;SDS011;6196;48.398;11.736;2022-12-26T12:14:27;4.03;;;2.60;;
12267;SDS011;6196;48.398;11.736;2022-12-26T12:17:34;2.47;;;2.20;;
12267;SDS011;6196;48.398;11.736;2022-12-26T12:20:39;3.33;;;2.10;;
12267;SDS011;6196;48.398;11.736;2022-12-26T12:29:44;7.73;;;2.83;;
12267;SDS011;6196;48.398;11.736;2022-12-26T12:35:52;6.03;;;3.37;;
12267;SDS011;6196;48.398;11.736;2022-12-26T12:38:35;4.63;;;3.23;;
12267;SDS011;6196;48.398;11.736;2022-12-26T12:44:32;3.70;;;3.27;;
12267;SDS011;6196;48.398;11.736;2022-12-26T12:47:45;4.63;;;3.80;;
12267;SDS011;6196;48.398;11.736;2022-12-26T12:50:31;5.17;;;2.83;;
12267;SDS011;6196;48.398;11.736;2022-12-26T12:53:37;4.53;;;3.40;;
12267;SDS011;6196;48.398;11.736;2022-12-26T12:56:36;5.03;;;4.20;;
12267;SDS011;6196;48.398;11.736;2022-12-26T12:59:22;4.63;;;3.40;;
12267;SDS011;6196;48.398;11.736;2022-12-26T13:01:55;5.60;;;3.70;;
12267;SDS011;6196;48.398;11.736;2022-12-26T13:04:39;4.67;;;3.37;;
12267;SDS011;6196;48.398;11.736;2022-12-26T13:07:13;8.33;;;4.20;;
12267;SDS011;6196;48.398;11.736;2022-12-26T13:10:11;5.93;;;3.80;;
12267;SDS011;6196;48.398;11.736;2022-12-26T13:12:44;5.40;;;4.23;;
12267;SDS011;6196;48.398;11.736;2022-12-26T13:17:48;7.83;;;4.27;;
12267;SDS011;6196;48.398;11.736;2022-12-26T13:20:50;5.27;;;4.00;;
12267;SDS011;6196;48.398;11.736;2022-12-26T13:23:34;6.80;;;4.63;;
12267;SDS011;6196;48.398;11.736;2022-12-26T13:26:33;6.77;;;5.03;;
12267;SDS011;6196;48.398;11.736;2022-12-26T13:32:00;6.23;;;3.90;;
12267;SDS011;6196;48.398;11.736;2022-12-26T13:34:32;4.03;;;3.10;;
12267;SDS011;6196;48.398;11.736;2022-12-26T13:36:59;4.73;;;3.83;;
12267;SDS011;6196;48.398;11.736;2022-12-26T13:41:53;6.60;;;3.57;;
12267;SDS011;6196;48.398;11.736;2022-12-26T13:44:43;4.87;;;3.27;;
12267;SDS011;6196;48.398;11.736;2022-12-26T13:56:00;5.47;;;4.10;;
12267;SDS011;6196;48.398;11.736;2022-12-26T14:01:36;4.73;;;4.07;;
12267;SDS011;6196;48.398;11.736;2022-12-26T14:04:53;5.90;;;4.17;;
12267;SDS011;6196;48.398;11.736;2022-12-26T14:10:27;5.07;;;3.57;;
12267;SDS011;6196;48.398;11.736;2022-12-26T14:15:58;4.40;;;3.73;;
12267;SDS011;6196;48.398;11.736;2022-12-26T14:32:49;6.77;;;4.27;;
12267;SDS011;6196;48.398;11.736;2022-12-26T14:35:53;5.90;;;4.53;;
12267;SDS011;6196;48.398;11.736;2022-12-26T14:38:37;5.80;;;4.63;;
12267;SDS011;6196;48.398;11.736;2022-12-26T14:42:08;5.77;;;4.33;;
12267;SDS011;6196;48.398;11.736;2022-12-26T14:44:52;6.80;;;4.40;;
12267;SDS011;6196;48.398;11.736;2022-12-26T14:47:34;6.20;;;4.87;;
12267;SDS011;6196;48.398;11.736;2022-12-26T14:59:18;5.27;;;4.77;;
12267;SDS011;6196;48.398;11.736;2022-12-26T15:02:00;6.37;;;4.90;;
12267;SDS011;6196;48.398;11.736;2022-12-26T15:04:50;5.97;;;5.00;;
12267;SDS011;6196;48.398;11.736;2022-12-26T15:07:53;6.13;;;5.33;;
12267;SDS011;6196;48.398;11.736;2022-12-26T15:16:56;4.87;;;4.00;;
12267;SDS011;6196;48.398;11.736;2022-12-26T15:28:29;3.90;;;2.90;;
12267;SDS011;6196;48.398;11.736;2022-12-26T15:34:53;3.87;;;3.43;;
12267;SDS011;6196;48.398;11.736;2022-12-26T15:38:17;5.93;;;3.63;;
12267;SDS011;6196;48.398;11.736;2022-12-26T15:46:20;3.70;;;2.70;;
12267;SDS011;6196;48.398;11.736;2022-12-26T16:00:16;3.47;;;2.40;;
12267;SDS011;6196;48.398;11.736;2022-12-26T16:02:54;4.13;;;2.10;;
12267;SDS011;6196;48.398;11.736;2022-12-26T16:11:17;2.80;;;2.00;;
12267;SDS011;6196;48.398;11.736;2022-12-26T16:13:47;2.83;;;2.10;;
12267;SDS011;6196;48.398;11.736;2022-12-26T16:16:30;3.50;;;1.97;;
12267;SDS011;6196;48.398;11.736;2022-12-26T16:21:49;2.87;;;1.87;;
12267;SDS011;6196;48.398;11.736;2022-12-26T16:24:41;2.63;;;2.07;;
12267;SDS011;6196;48.398;11.736;2022-12-26T16:27:12;2.93;;;2.00;;
12267;SDS011;6196;48.398;11.736;2022-12-26T16:29:45;3.23;;;2.00;;
12267;SDS011;6196;48.398;11.736;2022-12-26T16:32:37;2.00;;;1.73;;
12267;SDS011;6196;48.398;11.736;2022-12-26T16:35:14;2.20;;;1.90;;
12267;SDS011;6196;48.398;11.736;2022-12-26T16:37:48;3.83;;;1.70;;
12267;SDS011;6196;48.398;11.736;2022-12-26T16:40:20;2.73;;;1.50;;
12267;SDS011;6196;48.398;11.736;2022-12-26T16:46:00;2.50;;;1.80;;
12267;SDS011;6196;48.398;11.736;2022-12-26T16:48:31;2.00;;;1.80;;
12267;SDS011;6196;48.398;11.736;2022-12-26T16:51:02;1.27;;;1.17;;
12267;SDS011;6196;48.398;11.736;2022-12-26T16:59:11;1.77;;;1.00;;
12267;SDS011;6196;48.398;11.736;2022-12-26T17:01:50;1.40;;;1.20;;
12267;SDS011;6196;48.398;11.736;2022-12-26T17:04:25;1.30;;;1.10;;
12267;SDS011;6196;48.398;11.736;2022-12-26T17:07:01;1.17;;;1.00;;
12267;SDS011;6196;48.398;11.736;2022-12-26T17:09:39;1.67;;;0.87;;
12267;SDS011;6196;48.398;11.736;2022-12-26T17:15:19;2.37;;;1.10;;
12267;SDS011;6196;48.398;11.736;2022-12-26T17:17:49;0.80;;;0.80;;
12267;SDS011;6196;48.398;11.736;2022-12-26T17:22:48;0.93;;;0.67;;
12267;SDS011;6196;48.398;11.736;2022-12-26T17:27:46;2.57;;;0.70;;
12267;SDS011;6196;48.398;11.736;2022-12-26T17:30:34;0.60;;;0.60;;
12267;SDS011;6196;48.398;11.736;2022-12-26T17:35:57;0.70;;;0.70;;
12267;SDS011;6196;48.398;11.736;2022-12-26T17:38:52;0.77;;;0.67;;
12267;SDS011;6196;48.398;11.736;2022-12-26T17:41:19;0.50;;;0.50;;
12267;SDS011;6196;48.398;11.736;2022-12-26T17:43:46;0.83;;;0.80;;
12267;SDS011;6196;48.398;11.736;2022-12-26T17:46:14;0.50;;;0.50;;
12267;SDS011;6196;48.398;11.736;2022-12-26T17:48:43;0.60;;;0.40;;
12267;SDS011;6196;48.398;11.736;2022-12-26T17:51:12;1.63;;;0.60;;
12267;SDS011;6196;48.398;11.736;2022-12-26T17:53:42;0.70;;;0.70;;
12267;SDS011;6196;48.398;11.736;2022-12-26T17:56:15;0.93;;;0.60;;
12267;SDS011;6196;48.398;11.736;2022-12-26T17:58:46;1.67;;;0.70;;
12267;SDS011;6196;48.398;11.736;2022-12-26T18:01:14;0.60;;;0.50;;
12267;SDS011;6196;48.398;11.736;2022-12-26T18:03:46;0.90;;;0.50;;
12267;SDS011;6196;48.398;11.736;2022-12-26T18:06:13;0.60;;;0.43;;
12267;SDS011;6196;48.398;11.736;2022-12-26T18:08:42;1.37;;;0.57;;
12267;SDS011;6196;48.398;11.736;2022-12-26T18:11:10;1.27;;;0.40;;
12267;SDS011;6196;48.398;11.736;2022-12-26T18:13:39;0.70;;;0.60;;
12267;SDS011;6196;48.398;11.736;2022-12-26T18:16:06;0.80;;;0.50;;
12267;SDS011;6196;48.398;11.736;2022-12-26T18:18:41;2.40;;;0.67;;
12267;SDS011;6196;48.398;11.736;2022-12-26T18:21:11;1.43;;;0.50;;
12267;SDS011;6196;48.398;11.736;2022-12-26T18:23:40;1.00;;;0.47;;
12267;SDS011;6196;48.398;11.736;2022-12-26T18:26:15;1.70;;;0.50;;
12267;SDS011;6196;48.398;11.736;2022-12-26T18:28:50;0.37;;;0.37;;
12267;SDS011;6196;48.398;11.736;2022-12-26T18:31:17;0.60;;;0.60;;
12267;SDS011;6196;48.398;11.736;2022-12-26T18:33:44;1.20;;;0.50;;
12267;SDS011;6196;48.398;11.736;2022-12-26T18:36:12;1.53;;;0.73;;
12267;SDS011;6196;48.398;11.736;2022-12-26T18:38:40;0.50;;;0.50;;
12267;SDS011;6196;48.398;11.736;2022-12-26T18:41:08;0.77;;;0.60;;
12267;SDS011;6196;48.398;11.736;2022-12-26T18:43:41;0.60;;;0.60;;
12267;SDS011;6196;48.398;11.736;2022-12-26T18:46:13;0.50;;;0.50;;
12267;SDS011;6196;48.398;11.736;2022-12-26T18:48:51;0.80;;;0.57;;
12267;SDS011;6196;48.398;11.736;2022-12-26T18:51:19;0.83;;;0.40;;
12267;SDS011;6196;48.398;11.736;2022-12-26T18:53:46;1.30;;;0.70;;
12267;SDS011;6196;48.398;11.736;2022-12-26T18:56:14;0.50;;;0.50;;
12267;SDS011;6196;48.398;11.736;2022-12-26T18:58:44;0.80;;;0.70;;
12267;SDS011;6196;48.398;11.736;2022-12-26T19:01:19;1.33;;;0.63;;
12267;SDS011;6196;48.398;11.736;2022-12-26T19:03:46;0.87;;;0.43;;
12267;SDS011;6196;48.398;11.736;2022-12-26T19:06:15;1.13;;;0.60;;
12267;SDS011;6196;48.398;11.736;2022-12-26T19:08:52;0.57;;;0.50;;
12267;SDS011;6196;48.398;11.736;2022-12-26T19:11:19;0.40;;;0.37;;
12267;SDS011;6196;48.398;11.736;2022-12-26T19:13:46;0.30;;;0.30;;
12267;SDS011;6196;48.398;11.736;2022-12-26T19:16:13;0.60;;;0.50;;
12267;SDS011;6196;48.398;11.736;2022-12-26T19:18:40;1.47;;;0.40;;
12267;SDS011;6196;48.398;11.736;2022-12-26T19:21:10;0.60;;;0.40;;
12267;SDS011;6196;48.398;11.736;2022-12-26T19:23:39;0.40;;;0.40;;